Time;durP1;ratioP1;P1;durP2;ratioP2;P2;SDS_P1;SDS_P2;PMS_P1;PMS_P2;Temp;Humidity;BMP_temperature;BMP_pressure;BME280_temperature;BME280_humidity;BME280_pressure;Samples;Min_cycle;Max_cycle;Signal;HPM_P1;HPM_P2
2024/02/29 00:01:41;;;;;;;3.17;1.90;;;16.10;58.50;;;;;;5112198;28;20169;-57
2024/02/29 00:04:06;;;;;;;1.95;1.80;;;16.10;58.50;;;;;;5112512;28;20196;-58
2024/02/29 00:06:32;;;;;;;2.53;2.17;;;16.10;58.50;;;;;;5111075;28;20172;-57
2024/02/29 00:08:57;;;;;;;3.00;2.50;;;16.10;58.60;;;;;;5112220;28;20192;-58
2024/02/29 00:11:23;;;;;;;2.20;2.00;;;16.10;58.50;;;;;;5111881;28;20201;-59
2024/02/29 00:13:49;;;;;;;2.38;2.00;;;16.10;58.40;;;;;;5111822;28;20173;-59
2024/02/29 00:16:14;;;;;;;2.22;1.98;;;16.00;58.50;;;;;;5112021;28;20254;-58
2024/02/29 00:18:40;;;;;;;3.45;2.00;;;16.00;58.60;;;;;;5111983;28;20226;-58
2024/02/29 00:21:05;;;;;;;2.55;2.35;;;16.00;58.60;;;;;;5111284;28;20268;-58
2024/02/29 00:23:31;;;;;;;2.70;2.50;;;15.90;58.50;;;;;;5111827;28;20253;-58
2024/02/29 00:25:56;;;;;;;2.60;2.40;;;15.90;58.60;;;;;;5112154;28;20173;-59
2024/02/29 00:28:22;;;;;;;1.98;1.88;;;15.90;58.50;;;;;;5111353;28;20173;-58
2024/02/29 00:30:47;;;;;;;2.30;2.10;;;15.90;58.60;;;;;;5114279;28;20200;-58
2024/02/29 00:33:13;;;;;;;2.10;1.90;;;15.90;58.50;;;;;;5115929;28;20173;-58
2024/02/29 00:35:38;;;;;;;2.00;1.90;;;15.80;58.50;;;;;;5115616;28;20181;-58
2024/02/29 00:38:04;;;;;;;2.33;2.13;;;15.80;58.50;;;;;;5116121;28;20173;-58
2024/02/29 00:40:29;;;;;;;2.47;2.28;;;15.80;58.50;;;;;;5115300;28;20530;-58
2024/02/29 00:42:55;;;;;;;1.77;1.67;;;15.80;58.40;;;;;;5115569;28;20632;-58
2024/02/29 00:45:20;;;;;;;2.38;2.17;;;15.70;58.40;;;;;;5115595;28;20173;-58
2024/02/29 00:47:46;;;;;;;2.65;2.10;;;15.70;58.40;;;;;;5115191;28;20165;-58
2024/02/29 00:50:11;;;;;;;2.20;2.00;;;15.70;58.30;;;;;;5115529;28;20207;-58
2024/02/29 00:52:38;;;;;;;2.35;1.95;;;15.70;58.40;;;;;;5115782;28;20318;-59
2024/02/29 00:55:04;;;;;;;2.55;2.25;;;15.70;58.30;;;;;;5115046;28;20181;-58
2024/02/29 00:57:29;;;;;;;2.55;2.35;;;15.70;58.30;;;;;;5115424;28;20236;-59
2024/02/29 00:59:55;;;;;;;2.75;2.20;;;15.70;58.30;;;;;;5115569;28;20181;-58
2024/02/29 01:02:20;;;;;;;2.45;2.00;;;15.70;58.30;;;;;;5114760;28;20226;-58
2024/02/29 01:04:46;;;;;;;3.28;2.20;;;15.70;58.30;;;;;;5115544;28;20173;-58
2024/02/29 01:07:11;;;;;;;2.33;2.13;;;15.70;58.40;;;;;;5115213;28;20168;-58
2024/02/29 01:09:37;;;;;;;1.95;1.77;;;15.60;58.30;;;;;;5114704;28;20228;-59
2024/02/29 01:12:02;;;;;;;2.50;2.30;;;15.60;58.30;;;;;;5115343;28;20541;-59
2024/02/29 01:14:28;;;;;;;2.63;2.42;;;15.60;58.30;;;;;;5115252;28;20632;-59
2024/02/29 01:16:56;;;;;;;2.00;1.90;;;15.60;58.30;;;;;;5114712;28;20201;-58
2024/02/29 01:19:21;;;;;;;2.78;2.05;;;15.60;58.30;;;;;;5115044;28;20177;-59
2024/02/29 01:21:47;;;;;;;3.50;2.22;;;15.50;58.20;;;;;;5114535;28;20170;-59
2024/02/29 01:24:12;;;;;;;2.80;2.60;;;15.60;58.30;;;;;;5114001;28;20222;-58
2024/02/29 01:26:38;;;;;;;2.50;2.00;;;15.60;58.20;;;;;;5115335;28;20177;-58
2024/02/29 01:29:04;;;;;;;2.40;2.20;;;15.50;58.20;;;;;;5115312;28;20233;-58
2024/02/29 01:31:29;;;;;;;3.17;2.10;;;15.50;58.20;;;;;;5114050;28;20219;-58
2024/02/29 01:33:55;;;;;;;1.85;1.75;;;15.60;58.20;;;;;;5115017;28;20177;-58
2024/02/29 01:36:20;;;;;;;2.40;2.20;;;15.60;58.20;;;;;;5114487;28;20173;-58
2024/02/29 01:38:46;;;;;;;3.83;2.17;;;15.50;58.20;;;;;;5113980;28;20173;-59
2024/02/29 01:41:12;;;;;;;2.20;2.00;;;15.50;58.20;;;;;;5114097;28;20206;-58
2024/02/29 01:43:38;;;;;;;2.53;2.20;;;15.50;58.20;;;;;;5114845;28;20596;-58
2024/02/29 01:46:11;;;;;;;2.53;2.28;;;15.50;58.10;;;;;;5113712;28;20684;-58
2024/02/29 01:48:37;;;;;;;2.58;2.38;;;15.50;58.20;;;;;;5113859;28;20605;-58
2024/02/29 01:51:03;;;;;;;3.13;2.40;;;15.50;58.10;;;;;;5112798;28;20718;-58
2024/02/29 01:53:29;;;;;;;3.25;2.35;;;15.50;58.10;;;;;;5112265;28;20252;-58
2024/02/29 01:55:55;;;;;;;2.35;2.15;;;15.50;58.10;;;;;;5112823;28;20256;-58
2024/02/29 01:58:20;;;;;;;2.45;2.25;;;15.50;58.20;;;;;;5112089;28;20229;-58
2024/02/29 02:00:46;;;;;;;2.17;2.05;;;15.50;58.20;;;;;;5113375;28;20189;-58
2024/02/29 02:03:11;;;;;;;2.92;2.60;;;15.50;58.10;;;;;;5113975;28;20169;-58
2024/02/29 02:05:37;;;;;;;2.33;2.22;;;15.40;58.10;;;;;;5113685;28;20181;-57
2024/02/29 02:08:03;;;;;;;2.22;2.03;;;15.50;58.10;;;;;;5114166;28;20173;-58
2024/02/29 02:10:29;;;;;;;2.58;2.38;;;15.40;58.00;;;;;;5114138;28;20220;-58
2024/02/29 02:12:55;;;;;;;3.20;2.05;;;15.40;58.10;;;;;;5113692;28;20261;-59
2024/02/29 02:15:20;;;;;;;2.60;2.40;;;15.40;58.00;;;;;;5114057;28;20204;-59
2024/02/29 02:17:47;;;;;;;2.67;2.45;;;15.40;58.00;;;;;;5114087;28;20270;-58
2024/02/29 02:20:22;;;;;;;2.38;2.17;;;15.40;58.10;;;;;;5113179;27;20561;-58
2024/02/29 02:22:47;;;;;;;2.47;2.22;;;15.40;58.00;;;;;;5114367;28;20196;-59
2024/02/29 02:25:13;;;;;;;2.65;2.45;;;15.40;58.10;;;;;;5113759;28;20205;-58
2024/02/29 02:27:38;;;;;;;2.17;2.00;;;15.40;58.10;;;;;;5113255;28;20204;-58
2024/02/29 02:30:06;;;;;;;3.75;2.42;;;15.40;58.00;;;;;;5114009;28;20204;-58
2024/02/29 02:32:33;;;;;;;2.97;2.28;;;15.40;58.00;;;;;;5113619;28;20173;-58
2024/02/29 02:34:58;;;;;;;2.90;2.50;;;15.40;58.00;;;;;;5113025;28;20230;-58
2024/02/29 02:37:24;;;;;;;2.50;2.30;;;15.40;58.00;;;;;;5113727;28;20170;-58
2024/02/29 02:39:49;;;;;;;2.55;2.35;;;15.40;58.00;;;;;;5113729;28;20181;-58
2024/02/29 02:42:15;;;;;;;2.40;2.20;;;15.40;57.90;;;;;;5112896;28;20238;-58
2024/02/29 02:44:40;;;;;;;2.80;2.60;;;15.40;57.90;;;;;;5113687;28;20173;-58
2024/02/29 02:47:06;;;;;;;3.00;2.80;;;15.30;57.80;;;;;;5113137;28;20229;-58
2024/02/29 02:49:31;;;;;;;2.55;2.35;;;15.30;57.90;;;;;;5112875;28;20181;-58
2024/02/29 02:51:57;;;;;;;2.75;2.55;;;15.30;57.90;;;;;;5113347;28;20178;-58
2024/02/29 02:54:22;;;;;;;3.13;2.75;;;15.30;57.90;;;;;;5111745;28;20180;-58
2024/02/29 02:56:48;;;;;;;3.28;2.70;;;15.30;57.90;;;;;;5113472;28;20213;-58
2024/02/29 02:59:13;;;;;;;2.55;2.35;;;15.30;58.00;;;;;;5113300;28;20177;-58
2024/02/29 03:01:39;;;;;;;4.00;2.70;;;15.30;57.90;;;;;;5112823;28;20173;-58
2024/02/29 03:04:04;;;;;;;3.85;3.10;;;15.30;57.90;;;;;;5113398;28;20249;-58
2024/02/29 03:06:30;;;;;;;2.97;2.70;;;15.30;57.90;;;;;;5113060;28;20272;-58
2024/02/29 03:08:56;;;;;;;2.58;2.38;;;15.30;57.90;;;;;;5112637;28;20240;-62
2024/02/29 03:11:21;;;;;;;2.72;2.45;;;15.30;57.90;;;;;;5112711;28;20212;-59
2024/02/29 03:13:47;;;;;;;2.60;2.40;;;15.30;57.90;;;;;;5113172;28;20293;-59
2024/02/29 03:16:19;;;;;;;2.42;2.22;;;15.30;57.90;;;;;;5111861;28;20635;-59
2024/02/29 03:18:44;;;;;;;3.40;3.10;;;15.30;57.90;;;;;;5111474;28;20177;-58
2024/02/29 03:21:12;;;;;;;3.13;2.83;;;15.30;57.90;;;;;;5112862;28;20225;-59
2024/02/29 03:23:37;;;;;;;2.50;2.30;;;15.30;57.80;;;;;;5112026;28;20169;-58
2024/02/29 03:26:05;;;;;;;3.28;2.83;;;15.20;57.80;;;;;;5112827;28;20177;-59
2024/02/29 03:28:31;;;;;;;3.33;2.95;;;15.20;57.90;;;;;;5112612;28;20181;-59
2024/02/29 03:30:57;;;;;;;2.78;2.58;;;15.20;57.80;;;;;;5112014;28;20671;-58
2024/02/29 03:33:22;;;;;;;3.03;2.67;;;15.20;57.90;;;;;;5112409;28;20177;-59
2024/02/29 03:35:48;;;;;;;2.58;2.38;;;15.20;58.00;;;;;;5112457;28;20586;-58
2024/02/29 03:38:14;;;;;;;2.85;2.40;;;15.20;57.90;;;;;;5110588;28;20623;-59
2024/02/29 03:40:39;;;;;;;3.05;2.72;;;15.20;57.90;;;;;;5111365;28;20181;-59
2024/02/29 03:43:05;;;;;;;3.35;2.80;;;15.20;57.90;;;;;;5112733;28;20183;-58
2024/02/29 03:45:30;;;;;;;3.20;2.45;;;15.20;57.90;;;;;;5111571;28;20226;-59
2024/02/29 03:47:56;;;;;;;2.85;2.65;;;15.20;57.90;;;;;;5112528;28;20197;-59
2024/02/29 03:50:24;;;;;;;2.72;2.40;;;15.20;57.90;;;;;;5112156;28;20215;-59
2024/02/29 03:52:50;;;;;;;3.13;2.70;;;15.20;57.90;;;;;;5112192;28;20670;-59
2024/02/29 03:55:15;;;;;;;4.05;2.67;;;15.20;57.90;;;;;;5112299;28;20181;-59
2024/02/29 03:57:41;;;;;;;2.67;2.20;;;15.20;57.90;;;;;;5111619;28;20224;-59
2024/02/29 04:00:10;;;;;;;2.92;2.50;;;15.20;57.90;;;;;;5112408;28;20263;-58
2024/02/29 04:02:37;;;;;;;2.80;2.60;;;15.20;57.90;;;;;;5112422;28;20172;-58
2024/02/29 04:05:07;;;;;;;2.88;2.58;;;15.20;58.00;;;;;;5114494;28;20180;-59
2024/02/29 04:07:37;;;;;;;2.97;2.60;;;15.20;58.00;;;;;;5116745;28;20173;-58
2024/02/29 04:10:03;;;;;;;2.50;2.22;;;15.20;58.00;;;;;;5116785;28;20208;-59
2024/02/29 04:12:29;;;;;;;2.75;2.50;;;15.20;57.90;;;;;;5115648;28;20176;-59
2024/02/29 04:14:55;;;;;;;3.40;3.10;;;15.20;58.00;;;;;;5116494;28;20173;-58
2024/02/29 04:17:20;;;;;;;2.45;2.22;;;15.10;57.90;;;;;;5116474;28;20631;-59
2024/02/29 04:19:46;;;;;;;2.90;2.53;;;15.20;57.90;;;;;;5116091;28;20573;-58
2024/02/29 04:22:14;;;;;;;3.20;2.28;;;15.10;57.90;;;;;;5116161;28;20303;-59
2024/02/29 04:24:39;;;;;;;2.50;2.30;;;15.10;58.00;;;;;;5116670;28;20205;-58
2024/02/29 04:27:05;;;;;;;2.40;2.05;;;15.10;58.00;;;;;;5115818;28;20211;-58
2024/02/29 04:29:30;;;;;;;2.85;2.65;;;15.10;58.00;;;;;;5115705;28;20200;-59
2024/02/29 04:31:56;;;;;;;3.17;2.88;;;15.10;57.90;;;;;;5116557;28;20181;-58
2024/02/29 04:34:21;;;;;;;2.65;2.45;;;15.10;57.90;;;;;;5115380;28;20173;-59
2024/02/29 04:36:47;;;;;;;3.03;2.72;;;15.10;57.90;;;;;;5116283;28;20177;-59
2024/02/29 04:39:13;;;;;;;2.88;2.42;;;15.10;57.90;;;;;;5115870;28;20188;-59
2024/02/29 04:41:39;;;;;;;2.85;2.60;;;15.10;57.90;;;;;;5115463;28;20173;-58
2024/02/29 04:44:04;;;;;;;2.63;2.42;;;15.10;58.00;;;;;;5115923;28;20173;-58
2024/02/29 04:46:30;;;;;;;3.20;2.60;;;15.10;58.00;;;;;;5115905;28;20174;-58
2024/02/29 04:48:55;;;;;;;3.15;2.50;;;15.10;58.00;;;;;;5115342;28;20263;-58
2024/02/29 04:51:21;;;;;;;4.97;2.60;;;15.00;57.90;;;;;;5115666;28;20212;-59
2024/02/29 04:53:47;;;;;;;2.60;2.40;;;15.10;58.00;;;;;;5115191;28;20176;-58
2024/02/29 04:56:13;;;;;;;2.88;2.53;;;15.10;58.00;;;;;;5115504;28;20173;-58
2024/02/29 04:58:38;;;;;;;3.38;2.85;;;15.10;58.00;;;;;;5115476;28;20550;-58
2024/02/29 05:01:04;;;;;;;3.03;2.67;;;15.00;58.00;;;;;;5115247;28;20180;-58
2024/02/29 05:03:29;;;;;;;3.40;2.83;;;15.10;58.00;;;;;;5115287;28;20246;-58
2024/02/29 05:05:55;;;;;;;3.05;2.75;;;15.00;57.90;;;;;;5115587;28;20200;-58
2024/02/29 05:08:21;;;;;;;3.17;2.88;;;15.00;58.00;;;;;;5114599;28;20169;-59
2024/02/29 05:10:46;;;;;;;3.05;2.58;;;15.00;58.00;;;;;;5115368;28;20217;-58
2024/02/29 05:13:12;;;;;;;3.47;2.92;;;15.00;58.00;;;;;;5115107;28;20272;-58
2024/02/29 05:15:38;;;;;;;3.55;2.25;;;15.00;58.10;;;;;;5113707;28;20260;-58
2024/02/29 05:18:06;;;;;;;2.90;2.60;;;15.00;58.00;;;;;;5115472;28;20181;-58
2024/02/29 05:20:31;;;;;;;2.75;2.55;;;15.00;58.70;;;;;;5115134;27;20234;-58
2024/02/29 05:22:57;;;;;;;2.70;2.50;;;15.00;58.10;;;;;;5114678;28;20516;-58
2024/02/29 05:25:23;;;;;;;2.58;2.38;;;15.00;58.10;;;;;;5114983;28;20181;-58
2024/02/29 05:27:49;;;;;;;2.63;2.42;;;15.00;58.00;;;;;;5115092;28;20176;-58
2024/02/29 05:30:14;;;;;;;2.88;2.60;;;15.00;58.00;;;;;;5113980;28;20220;-58
2024/02/29 05:32:40;;;;;;;2.33;2.13;;;15.00;58.10;;;;;;5115230;28;20223;-57
2024/02/29 05:35:06;;;;;;;2.47;2.28;;;15.00;58.00;;;;;;5114991;28;20176;-58
2024/02/29 05:37:33;;;;;;;3.13;2.78;;;15.00;58.10;;;;;;5114050;28;20177;-57
2024/02/29 05:39:58;;;;;;;3.78;2.92;;;15.00;58.00;;;;;;5114904;28;20695;-57
2024/02/29 05:42:26;;;;;;;3.35;2.80;;;15.00;58.10;;;;;;5114478;28;20256;-58
2024/02/29 05:44:52;;;;;;;2.72;2.50;;;14.90;58.10;;;;;;5114366;28;20180;-57
2024/02/29 05:47:18;;;;;;;2.55;2.30;;;15.00;58.30;;;;;;5114440;28;20173;-58
2024/02/29 05:49:43;;;;;;;2.72;2.53;;;15.00;58.30;;;;;;5114659;28;20257;-58
2024/02/29 05:52:09;;;;;;;2.75;2.33;;;15.00;58.40;;;;;;5113781;28;20268;-58
2024/02/29 05:54:34;;;;;;;2.35;2.15;;;15.00;58.90;;;;;;5114643;28;20302;-58
2024/02/29 05:57:00;;;;;;;2.42;2.22;;;15.00;58.30;;;;;;5114020;28;20229;-58
2024/02/29 05:59:25;;;;;;;2.55;2.35;;;15.10;58.20;;;;;;5113943;28;20531;-58
2024/02/29 06:01:51;;;;;;;3.03;2.35;;;15.10;58.20;;;;;;5114780;28;20165;-58
2024/02/29 06:04:16;;;;;;;3.13;2.53;;;15.20;58.20;;;;;;5113640;28;20607;-58
2024/02/29 06:06:42;;;;;;;2.15;1.95;;;15.20;58.20;;;;;;5114487;28;20181;-57
2024/02/29 06:09:12;;;;;;;2.22;1.95;;;15.20;58.10;;;;;;5114119;28;20200;-60
2024/02/29 06:11:38;;;;;;;2.47;1.95;;;15.30;58.20;;;;;;5113363;28;20744;-58
2024/02/29 06:14:05;;;;;;;2.47;2.00;;;15.40;58.80;;;;;;5114396;28;20173;-58
2024/02/29 06:16:31;;;;;;;2.17;1.98;;;15.40;58.00;;;;;;5113889;28;20177;-59
2024/02/29 06:18:56;;;;;;;2.13;1.90;;;15.50;57.90;;;;;;5113579;28;20260;-59
2024/02/29 06:21:22;;;;;;;1.92;1.73;;;15.50;57.90;;;;;;5113708;28;20183;-59
2024/02/29 06:23:48;;;;;;;2.40;2.08;;;15.60;57.70;;;;;;5114126;28;20252;-59
2024/02/29 06:26:14;;;;;;;3.95;2.35;;;15.70;57.70;;;;;;5112998;28;20635;-60
2024/02/29 06:28:39;;;;;;;1.92;1.83;;;15.80;57.60;;;;;;5114214;28;20210;-59
2024/02/29 06:31:05;;;;;;;2.30;2.10;;;15.80;57.50;;;;;;5114023;28;20229;-59
2024/02/29 06:33:31;;;;;;;2.30;2.10;;;15.80;57.50;;;;;;5113015;28;20176;-59
2024/02/29 06:35:56;;;;;;;2.15;1.98;;;15.80;57.50;;;;;;5113910;28;20173;-59
2024/02/29 06:38:22;;;;;;;1.75;1.65;;;15.90;57.50;;;;;;5113418;28;20254;-59
2024/02/29 06:40:47;;;;;;;2.05;1.85;;;15.90;57.50;;;;;;5112945;28;20173;-59
2024/02/29 06:43:13;;;;;;;2.45;1.73;;;16.00;57.50;;;;;;5113532;28;20172;-59
2024/02/29 06:45:45;;;;;;;2.03;1.92;;;16.00;57.40;;;;;;5113840;28;20554;-58
2024/02/29 06:48:11;;;;;;;2.33;2.05;;;16.00;57.40;;;;;;5112735;28;20215;-59
2024/02/29 06:50:36;;;;;;;1.80;1.70;;;16.10;57.50;;;;;;5113422;28;20232;-59
2024/02/29 06:53:02;;;;;;;1.90;1.80;;;16.20;57.40;;;;;;5113582;28;20184;-59
2024/02/29 06:55:28;;;;;;;1.85;1.55;;;16.20;57.20;;;;;;5112400;28;20185;-59
2024/02/29 06:57:53;;;;;;;1.90;1.65;;;16.40;57.20;;;;;;5113298;28;20222;-59
2024/02/29 07:00:19;;;;;;;1.73;1.63;;;16.50;57.00;;;;;;5112804;28;20598;-59
2024/02/29 07:02:44;;;;;;;3.42;1.45;;;16.70;56.90;;;;;;5113391;28;20214;-59
2024/02/29 07:05:10;;;;;;;1.90;1.80;;;16.80;56.60;;;;;;5112917;28;20694;-59
2024/02/29 07:07:36;;;;;;;1.63;1.52;;;17.00;56.40;;;;;;5112588;28;20189;-59
2024/02/29 07:10:07;;;;;;;1.80;1.63;;;17.10;56.10;;;;;;5112949;28;20277;-60
2024/02/29 07:12:32;;;;;;;1.55;1.40;;;17.30;55.80;;;;;;5112969;28;20217;-60
2024/02/29 07:14:58;;;;;;;1.40;1.30;;;17.30;55.60;;;;;;5112379;28;20168;-59
2024/02/29 07:17:23;;;;;;;1.70;1.60;;;17.40;55.50;;;;;;5112711;28;20287;-59
2024/02/29 07:19:49;;;;;;;1.63;1.52;;;17.40;55.50;;;;;;5113099;28;20256;-59
2024/02/29 07:22:15;;;;;;;1.80;1.50;;;17.50;55.50;;;;;;5111974;28;20262;-59
2024/02/29 07:24:40;;;;;;;2.45;1.58;;;17.40;55.60;;;;;;5112947;28;20197;-59
2024/02/29 07:27:06;;;;;;;1.35;1.25;;;17.30;55.60;;;;;;5112854;28;20252;-59
2024/02/29 07:29:31;;;;;;;1.70;1.60;;;17.40;55.60;;;;;;5111675;28;20187;-58
2024/02/29 07:31:57;;;;;;;1.73;1.33;;;17.40;55.70;;;;;;5112958;28;20185;-59
2024/02/29 07:34:22;;;;;;;2.35;1.60;;;17.40;55.70;;;;;;5112552;28;20169;-59
2024/02/29 07:36:48;;;;;;;1.98;1.40;;;17.30;55.80;;;;;;5112081;28;20169;-59
2024/02/29 07:39:14;;;;;;;2.30;1.42;;;17.30;55.80;;;;;;5111658;28;20256;-59
2024/02/29 07:41:43;;;;;;;2.75;1.63;;;17.20;56.00;;;;;;5112924;28;20256;-59
2024/02/29 07:44:08;;;;;;;2.10;1.42;;;17.20;56.70;;;;;;5111752;28;20261;-60
2024/02/29 07:46:35;;;;;;;1.20;1.10;;;17.10;56.10;;;;;;5112851;28;20248;-59
2024/02/29 07:49:00;;;;;;;1.42;1.30;;;17.10;56.20;;;;;;5112560;28;20184;-59
2024/02/29 07:51:26;;;;;;;1.52;1.42;;;17.00;56.30;;;;;;5111620;28;20216;-59
2024/02/29 07:53:52;;;;;;;1.75;1.65;;;17.00;56.40;;;;;;5112516;28;20169;-60
2024/02/29 07:56:18;;;;;;;1.40;1.30;;;17.00;56.50;;;;;;5112223;28;20264;-59
2024/02/29 07:58:43;;;;;;;1.67;1.50;;;17.00;56.50;;;;;;5111759;28;20216;-59
2024/02/29 08:01:09;;;;;;;1.48;1.38;;;16.90;56.50;;;;;;5112276;28;20256;-59
2024/02/29 08:03:34;;;;;;;1.95;1.67;;;17.00;56.50;;;;;;5112533;28;20599;-59
2024/02/29 08:06:00;;;;;;;1.75;1.55;;;17.00;56.60;;;;;;5111891;28;20754;-59
2024/02/29 08:08:25;;;;;;;3.05;1.55;;;17.10;56.60;;;;;;5111988;28;20240;-60
2024/02/29 08:10:51;;;;;;;1.77;1.60;;;17.10;56.60;;;;;;5111573;28;20580;-60
2024/02/29 08:13:16;;;;;;;3.35;1.48;;;17.10;56.60;;;;;;5111995;28;20643;-59
2024/02/29 08:15:42;;;;;;;1.40;1.30;;;17.10;56.60;;;;;;5112241;28;20173;-68
2024/02/29 08:18:08;;;;;;;1.40;1.30;;;17.10;56.60;;;;;;5111556;28;20199;-64
2024/02/29 08:20:33;;;;;;;2.17;1.40;;;17.20;56.70;;;;;;5112256;28;20627;-64
2024/02/29 08:22:59;;;;;;;2.75;1.63;;;17.20;56.80;;;;;;5112192;28;20177;-63
2024/02/29 08:25:26;;;;;;;1.73;1.45;;;17.20;56.80;;;;;;5113237;28;20181;-60
2024/02/29 08:27:52;;;;;;;2.33;1.50;;;17.20;56.90;;;;;;5120230;27;20192;-62
2024/02/29 08:30:17;;;;;;;2.75;1.45;;;17.20;56.90;;;;;;5126288;27;20239;-61
2024/02/29 08:32:43;;;;;;;1.50;1.40;;;17.20;57.00;;;;;;5132210;28;20196;-63
2024/02/29 08:35:09;;;;;;;1.40;1.30;;;17.20;57.10;;;;;;5112157;28;20181;-62
2024/02/29 08:37:35;;;;;;;2.38;1.70;;;17.20;57.00;;;;;;5112102;28;20663;-63
2024/02/29 08:40:02;;;;;;;1.63;1.40;;;17.20;57.10;;;;;;5111663;28;20204;-63
2024/02/29 08:42:27;;;;;;;1.50;1.35;;;17.30;57.00;;;;;;5121382;28;20187;-63
2024/02/29 08:44:53;;;;;;;2.15;1.58;;;17.30;57.00;;;;;;5132718;28;20177;-62
2024/02/29 08:47:19;;;;;;;2.05;1.52;;;17.30;57.00;;;;;;5131616;28;20179;-62
2024/02/29 08:49:44;;;;;;;3.47;1.90;;;17.30;57.00;;;;;;5132456;27;20180;-62
2024/02/29 08:52:10;;;;;;;2.15;1.40;;;17.30;57.10;;;;;;5134788;27;20263;-63
2024/02/29 08:54:36;;;;;;;3.22;1.80;;;17.30;57.10;;;;;;5135522;27;20639;-63
2024/02/29 08:57:07;;;;;;;1.42;1.23;;;17.30;57.00;;;;;;5117556;27;20233;-63
2024/02/29 08:59:32;;;;;;;4.10;1.77;;;17.40;57.00;;;;;;5115600;28;20169;-63
2024/02/29 09:01:58;;;;;;;2.22;1.67;;;17.30;57.10;;;;;;5115111;28;20180;-63
2024/02/29 09:04:25;;;;;;;2.13;1.63;;;17.40;57.20;;;;;;5115308;28;20530;-63
2024/02/29 09:06:50;;;;;;;1.92;1.70;;;17.30;57.30;;;;;;5115801;28;20197;-64
2024/02/29 09:09:16;;;;;;;4.30;1.92;;;17.30;57.20;;;;;;5114792;28;20246;-63
2024/02/29 09:11:42;;;;;;;2.80;1.50;;;17.40;57.30;;;;;;5115550;28;20212;-64
2024/02/29 09:14:08;;;;;;;2.33;1.40;;;17.40;57.20;;;;;;5114642;28;20182;-64
2024/02/29 09:16:34;;;;;;;2.08;1.60;;;17.40;57.10;;;;;;5115435;28;20173;-63
2024/02/29 09:18:59;;;;;;;2.05;1.60;;;17.40;57.10;;;;;;5115330;28;20191;-63
2024/02/29 09:21:25;;;;;;;3.10;1.40;;;17.40;57.00;;;;;;5114521;28;20169;-63
2024/02/29 09:23:50;;;;;;;1.30;1.20;;;17.50;57.10;;;;;;5115211;28;20169;-63
2024/02/29 09:26:18;;;;;;;1.30;1.20;;;17.50;57.10;;;;;;5114958;28;20208;-63
2024/02/29 09:28:46;;;;;;;1.52;1.35;;;17.40;57.10;;;;;;5114794;28;20181;-63
2024/02/29 09:31:14;;;;;;;1.92;1.38;;;17.40;57.20;;;;;;5114876;28;20300;-62
2024/02/29 09:33:40;;;;;;;2.03;1.50;;;17.30;57.10;;;;;;5115241;28;20650;-63
2024/02/29 09:36:10;;;;;;;4.07;1.67;;;17.40;57.20;;;;;;5114713;28;20209;-63
2024/02/29 09:38:36;;;;;;;2.45;1.58;;;17.30;57.60;;;;;;5115422;28;20180;-63
2024/02/29 09:41:02;;;;;;;2.85;1.38;;;17.20;57.30;;;;;;5115047;28;20173;-64
2024/02/29 09:43:28;;;;;;;1.98;1.40;;;17.20;57.60;;;;;;5113809;28;20181;-63
2024/02/29 09:45:54;;;;;;;1.85;1.50;;;17.10;57.60;;;;;;5113664;28;20233;-63
2024/02/29 09:48:19;;;;;;;2.05;1.40;;;17.10;57.60;;;;;;5113277;28;20218;-62
2024/02/29 09:50:45;;;;;;;1.35;1.25;;;17.10;57.60;;;;;;5114167;28;20259;-63
2024/02/29 09:53:10;;;;;;;2.80;1.50;;;17.10;57.80;;;;;;5114578;28;20585;-63
2024/02/29 09:55:36;;;;;;;2.25;1.40;;;17.00;57.80;;;;;;5114855;28;20252;-63
2024/02/29 09:58:01;;;;;;;3.10;1.60;;;17.00;57.90;;;;;;5113863;28;20653;-64
2024/02/29 10:00:27;;;;;;;1.65;1.55;;;17.00;57.80;;;;;;5114282;28;20219;-63
2024/02/29 10:02:52;;;;;;;1.52;1.23;;;17.00;57.80;;;;;;5114121;28;20213;-63
2024/02/29 10:05:19;;;;;;;2.13;1.40;;;16.90;57.90;;;;;;5112258;28;20284;-63
2024/02/29 10:07:47;;;;;;;3.03;1.70;;;16.90;58.00;;;;;;5114604;28;20169;-63
2024/02/29 10:10:17;;;;;;;2.28;1.50;;;16.80;58.00;;;;;;5113493;28;20546;-64
2024/02/29 10:12:43;;;;;;;1.50;1.40;;;16.80;58.20;;;;;;5114170;28;20631;-63
2024/02/29 10:15:12;;;;;;;1.73;1.60;;;16.80;58.10;;;;;;5113920;28;20654;-63
2024/02/29 10:17:38;;;;;;;2.40;1.80;;;16.80;58.20;;;;;;5113451;28;20201;-63
2024/02/29 10:20:12;;;;;;;1.83;1.60;;;16.80;58.20;;;;;;5114348;28;20178;-63
2024/02/29 10:22:41;;;;;;;1.92;1.52;;;16.80;58.20;;;;;;5114219;28;20180;-63
2024/02/29 10:25:11;;;;;;;1.63;1.52;;;16.80;58.20;;;;;;5113390;28;20197;-63
2024/02/29 10:27:37;;;;;;;1.65;1.50;;;16.90;58.20;;;;;;5114070;28;20238;-63
2024/02/29 10:30:13;;;;;;;2.90;1.33;;;16.80;58.10;;;;;;5113845;28;20651;-63
2024/02/29 10:32:40;;;;;;;2.20;1.50;;;16.80;58.20;;;;;;5113194;28;20542;-63
2024/02/29 10:35:15;;;;;;;1.77;1.30;;;16.80;58.10;;;;;;5113998;28;20179;-63
2024/02/29 10:37:41;;;;;;;1.40;1.30;;;16.70;58.20;;;;;;5113860;28;20255;-63
2024/02/29 10:40:07;;;;;;;1.63;1.33;;;16.70;58.20;;;;;;5111881;28;20596;-64
2024/02/29 10:42:33;;;;;;;1.63;1.50;;;16.70;58.30;;;;;;5113445;28;20687;-63
2024/02/29 10:44:59;;;;;;;1.70;1.60;;;16.70;58.40;;;;;;5112677;28;20180;-63
2024/02/29 10:47:24;;;;;;;1.98;1.20;;;16.70;58.40;;;;;;5111665;28;20169;-62
2024/02/29 10:49:51;;;;;;;1.40;1.30;;;16.70;58.40;;;;;;5112420;28;20169;-63
2024/02/29 10:52:21;;;;;;;1.80;1.50;;;16.70;58.40;;;;;;5112024;28;20181;-63
2024/02/29 10:55:05;;;;;;;1.40;1.30;;;16.70;58.40;;;;;;5111618;28;20212;-63
2024/02/29 10:57:37;;;;;;;1.70;1.55;;;16.70;58.40;;;;;;5113208;28;20225;-63
2024/02/29 11:00:02;;;;;;;2.03;1.50;;;16.60;58.30;;;;;;5111735;28;20181;-63
2024/02/29 11:02:28;;;;;;;1.50;1.40;;;16.60;58.40;;;;;;5111989;28;20586;-63
2024/02/29 11:04:54;;;;;;;1.33;1.23;;;16.60;58.40;;;;;;5113454;28;20668;-63
2024/02/29 11:07:19;;;;;;;1.50;1.40;;;16.60;58.60;;;;;;5111023;28;20177;-63
2024/02/29 11:09:45;;;;;;;1.75;1.65;;;16.50;58.60;;;;;;5112180;28;20169;-64
2024/02/29 11:12:11;;;;;;;1.75;1.65;;;16.50;58.60;;;;;;5111857;28;20173;-63
2024/02/29 11:14:37;;;;;;;1.85;1.60;;;16.50;58.60;;;;;;5111627;28;20200;-63
2024/02/29 11:17:04;;;;;;;1.65;1.55;;;16.50;58.60;;;;;;5113316;28;20207;-63
2024/02/29 11:19:29;;;;;;;1.88;1.67;;;16.50;58.60;;;;;;5112714;28;20267;-63
2024/02/29 11:21:55;;;;;;;1.38;1.27;;;16.50;58.50;;;;;;5112344;28;20194;-64
2024/02/29 11:24:21;;;;;;;1.92;1.48;;;16.50;58.50;;;;;;5111484;28;20541;-62
2024/02/29 11:26:53;;;;;;;2.13;1.35;;;16.50;58.50;;;;;;5113164;28;20674;-63
2024/02/29 11:29:20;;;;;;;1.50;1.23;;;16.50;58.60;;;;;;5110975;28;20180;-63
2024/02/29 11:31:49;;;;;;;1.70;1.60;;;16.50;58.60;;;;;;5112973;28;20205;-63
2024/02/29 11:34:16;;;;;;;1.88;1.35;;;16.50;58.60;;;;;;5112396;28;20177;-63
2024/02/29 11:36:42;;;;;;;1.38;1.25;;;16.50;58.70;;;;;;5112126;28;20181;-63
2024/02/29 11:39:10;;;;;;;1.33;1.23;;;16.40;58.70;;;;;;5111448;28;20571;-63
2024/02/29 11:41:38;;;;;;;1.60;1.50;;;16.40;58.70;;;;;;5112941;28;20592;-62
2024/02/29 11:44:04;;;;;;;2.63;1.70;;;16.40;58.70;;;;;;5112606;28;20173;-62
2024/02/29 11:46:29;;;;;;;1.92;1.60;;;16.40;58.70;;;;;;5112243;28;20215;-64
2024/02/29 11:48:56;;;;;;;2.75;1.52;;;16.40;58.70;;;;;;5111664;28;20594;-64
2024/02/29 11:51:23;;;;;;;1.88;1.60;;;16.40;58.70;;;;;;5112127;28;20212;-64
2024/02/29 11:53:49;;;;;;;2.40;1.30;;;16.50;58.70;;;;;;5112524;28;20520;-65
2024/02/29 11:56:14;;;;;;;1.83;1.48;;;16.50;58.70;;;;;;5111660;28;20183;-63
2024/02/29 11:58:40;;;;;;;3.58;1.65;;;16.50;58.80;;;;;;5112424;28;20691;-63
2024/02/29 12:01:06;;;;;;;2.22;1.50;;;16.40;58.70;;;;;;5112602;28;20173;-62
2024/02/29 12:03:31;;;;;;;2.97;1.65;;;16.40;58.70;;;;;;5111268;28;20639;-62
2024/02/29 12:05:57;;;;;;;2.63;1.58;;;16.40;58.90;;;;;;5112658;28;20192;-62
2024/02/29 12:08:26;;;;;;;1.83;1.65;;;16.40;58.90;;;;;;5111531;28;20639;-62
2024/02/29 12:10:58;;;;;;;3.05;1.67;;;16.40;59.00;;;;;;5111508;28;20683;-63
2024/02/29 12:13:23;;;;;;;3.83;1.70;;;16.40;59.00;;;;;;5111978;28;20600;-64
2024/02/29 12:15:49;;;;;;;3.03;1.90;;;16.40;59.00;;;;;;5111226;28;20183;-63
2024/02/29 12:18:14;;;;;;;4.32;1.75;;;16.40;58.90;;;;;;5110104;28;20179;-64
2024/02/29 12:20:40;;;;;;;2.83;1.60;;;16.40;59.50;;;;;;5112260;28;20180;-64
2024/02/29 12:23:07;;;;;;;2.00;1.60;;;16.40;58.80;;;;;;5112431;28;20184;-64
2024/02/29 12:25:33;;;;;;;3.08;1.58;;;16.50;58.90;;;;;;5113379;28;20180;-65
2024/02/29 12:27:58;;;;;;;1.70;1.58;;;16.40;58.90;;;;;;5116514;28;20169;-63
2024/02/29 12:30:24;;;;;;;2.42;1.33;;;16.40;58.90;;;;;;5116012;28;20201;-63
2024/02/29 12:32:49;;;;;;;1.95;1.73;;;16.40;58.90;;;;;;5115638;28;20207;-64
2024/02/29 12:35:16;;;;;;;2.53;2.00;;;16.40;59.00;;;;;;5116225;28;20250;-65
2024/02/29 12:37:44;;;;;;;4.13;1.75;;;16.40;59.00;;;;;;5116217;27;20176;-63
2024/02/29 12:40:13;;;;;;;5.40;2.67;;;16.40;59.00;;;;;;5115098;28;20177;-62
2024/02/29 12:42:41;;;;;;;5.78;2.30;;;16.40;59.30;;;;;;5116126;28;20188;-64